createdAt,value
2019-05-07T00:01:59.485Z,5.50
2019-05-07T00:04:28.806Z,4.60
2019-05-07T00:06:58.183Z,4.43
2019-05-07T00:09:27.443Z,4.77
2019-05-07T00:11:56.709Z,5.17
2019-05-07T00:14:26.544Z,4.87
2019-05-07T00:16:55.815Z,0.60
2019-05-07T00:19:25.066Z,0.60
2019-05-07T00:21:54.431Z,1.10
2019-05-07T00:24:23.719Z,0.70
2019-05-07T00:26:53.330Z,0.60
2019-05-07T00:29:23.011Z,0.60
2019-05-07T00:31:52.366Z,0.60
2019-05-07T00:34:23.634Z,0.70
2019-05-07T00:37:17.983Z,0.60
2019-05-07T00:39:54.511Z,0.60
2019-05-07T00:42:32.720Z,3.50
2019-05-07T00:45:17.031Z,0.67
2019-05-07T00:47:37.513Z,0.70
2019-05-07T00:50:12.965Z,0.70
2019-05-07T00:52:43.090Z,0.60
2019-05-07T00:55:12.459Z,0.70
2019-05-07T00:57:42.896Z,0.60
2019-05-07T01:00:13.167Z,0.60
2019-05-07T01:02:43.166Z,0.70
2019-05-07T01:05:12.547Z,0.70
2019-05-07T01:07:42.020Z,0.80
2019-05-07T01:10:12.705Z,0.70
2019-05-07T01:12:54.734Z,0.60
2019-05-07T01:15:31.005Z,1.90
2019-05-07T01:17:55.305Z,0.63
2019-05-07T01:20:24.523Z,0.70
2019-05-07T01:22:54.660Z,0.60
2019-05-07T01:25:24.882Z,0.60
2019-05-07T01:27:54.074Z,0.60
2019-05-07T01:30:23.348Z,0.60
2019-05-07T01:32:57.706Z,0.60
2019-05-07T01:35:45.915Z,0.60
2019-05-07T01:38:16.938Z,0.60
2019-05-07T01:40:46.254Z,0.60
2019-05-07T01:43:15.752Z,1.10
2019-05-07T01:45:49.547Z,0.60
2019-05-07T01:48:16.682Z,0.97
2019-05-07T01:50:45.942Z,0.60
2019-05-07T01:53:15.309Z,0.60
2019-05-07T01:55:44.536Z,0.60
2019-05-07T01:58:13.828Z,0.60
2019-05-07T02:00:53.060Z,0.70
2019-05-07T02:03:28.155Z,0.60
2019-05-07T02:06:04.095Z,0.60
2019-05-07T02:08:55.154Z,0.70
2019-05-07T02:11:29.989Z,0.67
2019-05-07T02:13:59.337Z,0.70
2019-05-07T02:16:28.598Z,0.60
2019-05-07T02:18:57.911Z,0.60
2019-05-07T02:21:27.413Z,0.70
2019-05-07T02:23:57.005Z,0.77
2019-05-07T02:26:26.430Z,0.67
2019-05-07T02:28:56.005Z,0.70
2019-05-07T02:31:25.279Z,0.60
2019-05-07T02:33:54.556Z,0.60
2019-05-07T02:36:24.113Z,0.70
2019-05-07T02:39:03.945Z,0.67
2019-05-07T02:41:35.794Z,0.60
2019-05-07T02:44:05.118Z,0.67
2019-05-07T02:47:05.309Z,0.70
2019-05-07T02:49:53.622Z,0.60
2019-05-07T02:52:43.810Z,0.67
2019-05-07T02:55:19.541Z,0.70
2019-05-07T02:57:48.905Z,0.70
2019-05-07T03:00:19.482Z,0.70
2019-05-07T03:02:48.939Z,0.60
2019-05-07T03:05:18.319Z,0.60
2019-05-07T03:07:47.495Z,0.70
2019-05-07T03:10:17.015Z,0.60
2019-05-07T03:12:46.267Z,0.60
2019-05-07T03:15:15.836Z,0.60
2019-05-07T03:17:45.110Z,0.60
2019-05-07T03:20:18.217Z,0.70
2019-05-07T03:22:47.643Z,1.00
2019-05-07T03:25:23.094Z,0.70
2019-05-07T03:27:53.609Z,0.60
2019-05-07T03:30:45.351Z,0.70
2019-05-07T03:33:25.537Z,1.47
2019-05-07T03:35:56.196Z,0.60
2019-05-07T03:38:24.484Z,0.60
2019-05-07T03:40:53.777Z,0.70
2019-05-07T03:43:24.628Z,0.70
2019-05-07T03:46:07.748Z,0.63
2019-05-07T03:48:38.348Z,1.23
2019-05-07T03:51:07.687Z,0.70
2019-05-07T03:53:37.033Z,1.70
2019-05-07T03:56:25.584Z,0.60
2019-05-07T03:58:55.005Z,0.90
2019-05-07T04:01:24.439Z,0.70
2019-05-07T04:03:53.925Z,0.70
2019-05-07T04:06:23.597Z,1.83
2019-05-07T04:08:53.360Z,1.40
2019-05-07T04:11:23.196Z,1.13
2019-05-07T04:13:53.478Z,0.70
2019-05-07T04:16:24.256Z,1.57
2019-05-07T04:18:53.675Z,0.70
2019-05-07T04:21:23.340Z,0.73
2019-05-07T04:24:13.491Z,0.80
2019-05-07T04:26:45.216Z,0.70
2019-05-07T04:29:16.620Z,0.70
2019-05-07T04:31:45.908Z,0.70
2019-05-07T04:34:23.836Z,0.70
2019-05-07T04:36:53.461Z,0.70
2019-05-07T04:39:23.476Z,0.70
2019-05-07T04:41:53.149Z,0.60
2019-05-07T04:44:23.550Z,0.70
2019-05-07T04:46:53.598Z,0.60
2019-05-07T04:49:24.060Z,0.60
2019-05-07T04:52:23.654Z,0.90
2019-05-07T04:54:52.833Z,0.60
2019-05-07T04:57:28.314Z,0.60
2019-05-07T05:00:02.951Z,1.67
2019-05-07T05:02:52.734Z,4.00
2019-05-07T05:05:23.658Z,4.83
2019-05-07T05:07:53.418Z,6.37
2019-05-07T05:10:23.377Z,4.57
2019-05-07T05:12:53.734Z,5.00
2019-05-07T05:15:23.548Z,6.23
2019-05-07T05:17:54.104Z,5.67
2019-05-07T05:20:33.485Z,5.93
2019-05-07T05:23:15.853Z,6.00
2019-05-07T05:25:45.206Z,5.60
2019-05-07T05:28:15.049Z,5.30
2019-05-07T05:30:49.087Z,5.53
2019-05-07T05:33:18.353Z,5.30
2019-05-07T05:35:52.571Z,5.50
2019-05-07T05:38:22.343Z,5.93
2019-05-07T05:40:52.212Z,6.87
2019-05-07T05:43:39.142Z,7.10
2019-05-07T05:46:08.690Z,5.70
2019-05-07T05:48:38.089Z,5.80
2019-05-07T05:51:25.450Z,6.07
2019-05-07T05:54:01.894Z,6.10
2019-05-07T05:56:51.846Z,6.73
2019-05-07T05:59:49.072Z,6.70
2019-05-07T06:02:32.411Z,7.13
2019-05-07T06:05:35.990Z,7.10
2019-05-07T06:08:24.231Z,7.03
2019-05-07T06:11:15.548Z,8.33
2019-05-07T06:13:52.748Z,7.00
2019-05-07T06:16:25.788Z,7.67
2019-05-07T06:19:02.936Z,7.83
2019-05-07T06:21:52.467Z,9.07
2019-05-07T06:24:32.746Z,8.57
2019-05-07T06:27:02.926Z,8.57
2019-05-07T06:29:32.989Z,8.30
2019-05-07T06:32:05.103Z,9.27
2019-05-07T06:34:34.402Z,9.27
2019-05-07T06:37:03.789Z,8.60
2019-05-07T06:39:42.037Z,8.77
2019-05-07T06:42:28.595Z,9.30
2019-05-07T06:45:15.109Z,9.37
2019-05-07T06:47:44.502Z,9.87
2019-05-07T06:50:21.943Z,8.70
2019-05-07T06:52:51.894Z,9.07
2019-05-07T06:55:22.808Z,10.37
2019-05-07T06:57:53.158Z,10.43
2019-05-07T07:01:03.566Z,9.70
2019-05-07T07:03:56.224Z,10.57
2019-05-07T07:06:28.295Z,7.80
2019-05-07T07:09:28.691Z,8.13
2019-05-07T07:12:02.007Z,9.83
2019-05-07T07:14:33.201Z,9.60
2019-05-07T07:17:03.004Z,10.63
2019-05-07T07:19:36.139Z,11.00
2019-05-07T07:22:04.804Z,11.50
2019-05-07T07:24:35.055Z,10.47
2019-05-07T07:27:05.411Z,10.03
2019-05-07T07:29:41.725Z,10.67
2019-05-07T07:32:12.782Z,10.63
2019-05-07T07:34:48.045Z,10.70
2019-05-07T07:37:27.861Z,9.17
2019-05-07T07:40:19.277Z,10.83
2019-05-07T07:42:51.933Z,10.27
2019-05-07T07:45:22.994Z,10.10
2019-05-07T07:47:53.899Z,10.30
2019-05-07T07:50:24.298Z,9.83
2019-05-07T07:52:54.694Z,10.10
2019-05-07T07:55:42.495Z,10.20
2019-05-07T07:58:26.349Z,9.93
2019-05-07T08:01:12.252Z,11.63
2019-05-07T08:03:45.936Z,11.10
2019-05-07T08:06:16.007Z,11.53
2019-05-07T08:08:47.350Z,12.20
2019-05-07T08:11:17.636Z,10.37
2019-05-07T08:13:49.369Z,12.00
2019-05-07T08:16:22.095Z,11.30
2019-05-07T08:18:52.204Z,11.77
2019-05-07T08:21:22.925Z,11.40
2019-05-07T08:23:53.593Z,11.78
2019-05-07T08:26:24.797Z,10.83
2019-05-07T08:28:54.923Z,12.37
2019-05-07T08:31:32.452Z,11.03
2019-05-07T08:34:13.857Z,9.90
2019-05-07T08:36:42.826Z,12.33
2019-05-07T08:39:13.173Z,11.77
2019-05-07T08:41:52.713Z,10.90
2019-05-07T08:44:27.691Z,11.93
2019-05-07T08:47:23.113Z,11.77
2019-05-07T08:49:54.035Z,12.30
2019-05-07T08:52:26.153Z,12.23
2019-05-07T08:54:56.302Z,11.33
2019-05-07T08:57:45.962Z,12.77
2019-05-07T09:00:17.877Z,11.83
2019-05-07T09:02:48.068Z,11.37
2019-05-07T09:05:17.625Z,13.50
2019-05-07T09:07:47.600Z,14.20
2019-05-07T09:10:17.946Z,14.50
2019-05-07T09:12:48.275Z,11.23
2019-05-07T09:15:18.941Z,13.37
2019-05-07T09:17:49.312Z,14.80
2019-05-07T09:20:18.866Z,15.00
2019-05-07T09:22:48.432Z,16.37
2019-05-07T09:25:17.996Z,14.57
2019-05-07T09:27:52.203Z,16.10
2019-05-07T09:30:56.244Z,17.17
2019-05-07T09:33:33.705Z,16.00
2019-05-07T09:36:04.548Z,17.90
2019-05-07T09:38:34.963Z,17.67
2019-05-07T09:41:04.443Z,18.37
2019-05-07T09:43:34.521Z,16.53
2019-05-07T09:46:04.674Z,19.07
2019-05-07T09:48:34.638Z,19.33
2019-05-07T09:51:04.079Z,19.23
2019-05-07T09:53:36.732Z,18.37
2019-05-07T09:56:07.084Z,19.70
2019-05-07T09:58:39.231Z,20.37
2019-05-07T10:01:08.772Z,17.80
2019-05-07T10:03:42.873Z,16.97
2019-05-07T10:06:15.137Z,18.40
2019-05-07T10:08:47.729Z,16.63
2019-05-07T10:11:27.392Z,17.20
2019-05-07T10:14:02.733Z,17.50
2019-05-07T10:16:41.836Z,16.60
2019-05-07T10:19:12.828Z,18.93
2019-05-07T10:21:43.008Z,17.00
2019-05-07T10:24:15.421Z,17.70
2019-05-07T10:26:45.643Z,15.23
2019-05-07T10:29:16.445Z,18.53
2019-05-07T10:31:46.655Z,15.23
2019-05-07T10:34:16.856Z,14.60
2019-05-07T10:36:47.361Z,16.20
2019-05-07T10:39:18.331Z,19.07
2019-05-07T10:41:49.735Z,18.00
2019-05-07T10:44:22.910Z,18.97
2019-05-07T10:47:12.121Z,18.60
2019-05-07T10:49:47.379Z,18.37
2019-05-07T10:52:18.241Z,16.83
2019-05-07T10:54:59.029Z,17.47
2019-05-07T10:57:21.908Z,17.07
2019-05-07T10:59:52.343Z,17.67
2019-05-07T11:02:27.604Z,15.80
2019-05-07T11:04:57.521Z,15.90
2019-05-07T11:07:27.889Z,15.50
2019-05-07T11:09:57.721Z,15.40
2019-05-07T11:12:32.040Z,13.87
2019-05-07T11:15:02.372Z,14.07
2019-05-07T11:17:52.107Z,14.30
2019-05-07T11:20:22.846Z,14.70
2019-05-07T11:22:52.892Z,13.30
2019-05-07T11:25:24.375Z,12.57
2019-05-07T11:27:54.750Z,15.03
2019-05-07T11:30:24.784Z,15.47
2019-05-07T11:32:57.400Z,12.70
2019-05-07T11:35:32.043Z,15.80
2019-05-07T11:38:10.934Z,14.93
2019-05-07T11:40:34.793Z,16.90
2019-05-07T11:43:13.041Z,15.20
2019-05-07T11:45:54.008Z,13.90
2019-05-07T11:48:24.338Z,12.67
2019-05-07T11:51:12.278Z,12.70
2019-05-07T11:54:02.104Z,15.23
2019-05-07T11:56:32.945Z,14.07
2019-05-07T11:59:04.642Z,17.57
2019-05-07T12:01:47.189Z,19.97
2019-05-07T12:04:16.435Z,16.43
2019-05-07T12:06:49.293Z,17.30
2019-05-07T12:12:47.896Z,13.60
2019-05-07T12:15:21.734Z,13.77
2019-05-07T12:17:54.035Z,14.50
2019-05-07T12:20:24.036Z,12.40
2019-05-07T12:22:54.031Z,11.70
2019-05-07T12:25:23.859Z,11.67
2019-05-07T12:27:53.814Z,12.07
2019-05-07T12:30:46.088Z,12.60
2019-05-07T12:33:37.293Z,12.23
2019-05-07T12:36:08.530Z,13.70
2019-05-07T12:38:37.837Z,9.50
2019-05-07T12:41:25.851Z,9.80
2019-05-07T12:43:55.679Z,10.40
2019-05-07T12:46:25.617Z,9.10
2019-05-07T12:48:58.813Z,8.80
2019-05-07T12:51:36.523Z,8.20
2019-05-07T12:54:18.599Z,7.50
2019-05-07T12:56:48.411Z,7.67
2019-05-07T12:59:18.246Z,6.63
2019-05-07T13:02:21.404Z,6.30
2019-05-07T13:04:41.765Z,5.30
2019-05-07T13:07:29.253Z,4.90
2019-05-07T13:09:59.911Z,5.90
2019-05-07T13:12:57.263Z,5.73
2019-05-07T13:15:28.714Z,5.00
2019-05-07T13:17:58.335Z,4.80
2019-05-07T13:20:42.097Z,4.80
2019-05-07T13:23:14.735Z,5.03
2019-05-07T13:25:46.245Z,4.30
2019-05-07T13:28:15.744Z,4.37
2019-05-07T13:30:52.606Z,3.80
2019-05-07T13:33:24.266Z,4.47
2019-05-07T13:35:53.769Z,3.80
2019-05-07T13:38:54.258Z,4.00
2019-05-07T13:41:46.588Z,4.53
2019-05-07T13:44:26.835Z,4.30
2019-05-07T13:47:15.475Z,3.67
2019-05-07T13:49:45.198Z,4.10
2019-05-07T13:52:14.548Z,3.40
2019-05-07T13:54:46.156Z,4.03
2019-05-07T13:57:16.108Z,3.80
2019-05-07T13:59:46.133Z,3.93
2019-05-07T14:02:16.670Z,3.20
2019-05-07T14:04:46.534Z,2.77
2019-05-07T14:07:16.516Z,3.30
2019-05-07T14:09:46.915Z,3.97
2019-05-07T14:12:16.248Z,4.67
2019-05-07T14:14:46.261Z,3.50
2019-05-07T14:17:15.624Z,3.07
2019-05-07T14:19:44.966Z,2.83
2019-05-07T14:22:24.372Z,3.00
2019-05-07T14:24:54.257Z,2.77
2019-05-07T14:27:23.601Z,3.17
2019-05-07T14:29:53.123Z,3.60
2019-05-07T14:32:34.926Z,3.90
2019-05-07T14:35:32.581Z,3.20
2019-05-07T14:38:13.637Z,3.93
2019-05-07T14:40:43.761Z,3.60
2019-05-07T14:43:19.409Z,4.07
2019-05-07T14:46:06.191Z,3.10
2019-05-07T14:48:36.446Z,4.13
2019-05-07T14:51:06.153Z,3.60
2019-05-07T14:53:35.810Z,3.40
2019-05-07T14:56:05.435Z,3.67
2019-05-07T14:58:35.151Z,3.17
2019-05-07T15:01:04.640Z,4.17
2019-05-07T15:03:35.051Z,3.00
2019-05-07T15:06:04.603Z,2.70
2019-05-07T15:08:33.998Z,3.10
2019-05-07T15:11:03.376Z,3.10
2019-05-07T15:13:32.878Z,4.40
2019-05-07T15:16:03.083Z,3.70
2019-05-07T15:18:52.746Z,3.40
2019-05-07T15:21:23.452Z,3.17
2019-05-07T15:23:54.669Z,2.47
2019-05-07T15:26:53.519Z,2.80
2019-05-07T15:29:25.510Z,3.40
2019-05-07T15:32:05.116Z,2.60
2019-05-07T15:34:34.466Z,3.50
2019-05-07T15:37:08.220Z,3.37
2019-05-07T15:39:42.108Z,2.60
2019-05-07T15:42:15.899Z,3.30
2019-05-07T15:44:45.266Z,2.80
2019-05-07T15:47:31.684Z,3.63
2019-05-07T15:50:01.611Z,2.90
2019-05-07T15:52:59.216Z,3.90
2019-05-07T15:55:35.040Z,4.67
2019-05-07T15:58:05.850Z,3.63
2019-05-07T16:01:16.258Z,3.60
2019-05-07T16:03:52.073Z,4.00
2019-05-07T16:06:48.350Z,4.00
2019-05-07T16:09:44.022Z,5.47
2019-05-07T16:12:22.658Z,3.47
2019-05-07T16:15:22.831Z,5.37
2019-05-07T16:17:58.824Z,3.50
2019-05-07T16:20:52.257Z,4.53
2019-05-07T16:23:32.592Z,5.40
2019-05-07T16:26:05.414Z,4.40
2019-05-07T16:28:35.499Z,4.10
2019-05-07T16:34:06.833Z,4.00
2019-05-07T16:37:18.463Z,8.10
2019-05-07T16:39:53.193Z,5.53
2019-05-07T16:54:45.208Z,4.80
2019-05-07T16:57:19.110Z,4.73
2019-05-07T16:59:52.296Z,6.80
2019-05-07T17:05:22.915Z,4.33
2019-05-07T17:07:57.544Z,4.10
2019-05-07T17:10:27.216Z,4.30
2019-05-07T17:12:56.834Z,4.57
2019-05-07T17:15:26.461Z,4.50
2019-05-07T17:18:02.991Z,5.77
2019-05-07T17:20:32.993Z,4.80
2019-05-07T17:23:03.130Z,5.50
2019-05-07T17:25:42.642Z,4.43
2019-05-07T17:28:12.766Z,4.87
2019-05-07T17:30:47.716Z,4.70
2019-05-07T17:33:18.978Z,4.73
2019-05-07T17:36:02.275Z,4.10
2019-05-07T17:38:32.194Z,6.43
2019-05-07T17:41:12.906Z,4.43
2019-05-07T17:43:36.259Z,5.50
2019-05-07T17:49:53.860Z,4.63
2019-05-07T17:52:48.525Z,5.57
2019-05-07T17:55:50.451Z,4.73
2019-05-07T17:58:48.699Z,5.67
2019-05-07T18:04:54.698Z,7.27
2019-05-07T18:07:21.371Z,9.73
2019-05-07T18:09:50.872Z,10.33
2019-05-07T18:12:23.160Z,11.80
2019-05-07T18:14:53.018Z,10.00
2019-05-07T18:17:39.303Z,11.40
2019-05-07T18:20:34.472Z,10.33
2019-05-07T18:23:16.277Z,12.67
2019-05-07T18:26:30.421Z,10.47
2019-05-07T18:30:02.815Z,10.30
2019-05-07T18:32:54.602Z,10.67
2019-05-07T18:40:12.740Z,10.30
2019-05-07T18:42:48.421Z,10.50
2019-05-07T18:45:18.609Z,11.60
2019-05-07T18:48:12.023Z,10.20
2019-05-07T18:51:14.541Z,12.37
2019-05-07T18:53:47.093Z,11.53
2019-05-07T18:56:17.746Z,12.13
2019-05-07T18:58:47.652Z,11.70
2019-05-07T19:01:19.906Z,10.83
2019-05-07T19:03:52.556Z,12.40
2019-05-07T19:06:22.427Z,11.17
2019-05-07T19:08:53.586Z,11.30
2019-05-07T19:11:23.273Z,10.77
2019-05-07T19:14:51.784Z,11.30
2019-05-07T19:17:21.854Z,10.83
2019-05-07T19:19:53.215Z,12.70
2019-05-07T19:22:25.557Z,11.23
2019-05-07T19:24:54.842Z,10.30
2019-05-07T19:27:24.323Z,10.40
2019-05-07T19:29:59.594Z,11.13
2019-05-07T19:32:32.291Z,11.30
2019-05-07T19:35:02.090Z,11.90
2019-05-07T19:37:31.925Z,12.60
2019-05-07T19:40:02.145Z,11.70
2019-05-07T19:42:33.994Z,11.60
2019-05-07T19:45:03.342Z,11.63
2019-05-07T19:47:33.176Z,12.70
2019-05-07T19:50:08.328Z,12.80
2019-05-07T19:52:42.532Z,11.83
2019-05-07T19:55:11.826Z,12.23
2019-05-07T19:57:52.996Z,12.77
2019-05-07T20:00:23.092Z,12.13
2019-05-07T20:02:54.242Z,11.27
2019-05-07T20:05:23.622Z,11.37
2019-05-07T20:07:56.133Z,12.20
2019-05-07T20:10:33.059Z,12.17
2019-05-07T20:13:03.117Z,12.40
2019-05-07T20:15:32.773Z,12.73
2019-05-07T20:18:03.143Z,11.77
2019-05-07T20:20:33.698Z,11.47
2019-05-07T20:23:03.143Z,12.40
2019-05-07T20:25:46.717Z,12.80
2019-05-07T20:28:03.596Z,11.73
2019-05-07T20:30:33.109Z,12.70
2019-05-07T20:33:03.090Z,12.23
2019-05-07T20:35:32.675Z,12.10
2019-05-07T20:38:02.962Z,13.50
2019-05-07T20:40:32.681Z,12.30
2019-05-07T20:43:02.402Z,13.90
2019-05-07T20:45:33.818Z,13.30
2019-05-07T20:48:03.355Z,12.53
2019-05-07T20:50:33.824Z,11.73
2019-05-07T20:53:03.426Z,12.73
2019-05-07T20:55:44.081Z,14.03
2019-05-07T20:58:13.588Z,12.20
2019-05-07T21:00:45.022Z,11.97
2019-05-07T21:03:20.280Z,13.43
2019-05-07T21:05:53.097Z,12.20
2019-05-07T21:08:23.120Z,13.00
2019-05-07T21:10:53.618Z,12.60
2019-05-07T21:13:30.770Z,11.73
2019-05-07T21:15:55.655Z,11.60
2019-05-07T21:18:25.096Z,11.90
2019-05-07T21:20:54.439Z,14.33
2019-05-07T21:23:23.792Z,11.40
2019-05-07T21:25:53.321Z,12.70
2019-05-07T21:28:22.722Z,12.53
2019-05-07T21:30:52.437Z,11.60
2019-05-07T21:33:22.845Z,10.77
2019-05-07T21:35:52.594Z,12.43
2019-05-07T21:38:22.476Z,13.30
2019-05-07T21:40:54.364Z,12.10
2019-05-07T21:43:23.670Z,11.70
2019-05-07T21:45:53.180Z,13.03
2019-05-07T21:48:23.588Z,12.20
2019-05-07T21:50:53.210Z,12.03
2019-05-07T21:53:29.192Z,12.47
2019-05-07T21:56:28.994Z,12.17
2019-05-07T21:59:07.061Z,11.27
2019-05-07T22:01:43.406Z,12.50
2019-05-07T22:04:12.668Z,12.00
2019-05-07T22:06:42.829Z,10.90
2019-05-07T22:09:14.226Z,12.37
2019-05-07T22:11:43.502Z,11.53
2019-05-07T22:14:13.109Z,10.17
2019-05-07T22:16:42.664Z,11.30
2019-05-07T22:19:12.305Z,12.63
2019-05-07T22:21:43.196Z,12.87
2019-05-07T22:24:15.070Z,12.67
2019-05-07T22:26:43.691Z,12.50
2019-05-07T22:29:13.543Z,12.00
2019-05-07T22:32:07.573Z,12.07
2019-05-07T22:34:48.924Z,11.53
2019-05-07T22:37:18.403Z,12.30
2019-05-07T22:39:47.763Z,10.90
2019-05-07T22:42:17.188Z,11.67
2019-05-07T22:44:46.495Z,10.20
2019-05-07T22:47:19.233Z,10.50
2019-05-07T22:49:50.164Z,10.43
2019-05-07T22:52:38.566Z,10.40
2019-05-07T22:55:13.948Z,10.30
2019-05-07T22:57:47.651Z,9.93
2019-05-07T23:00:33.846Z,9.93
2019-05-07T23:03:03.217Z,9.33
2019-05-07T23:05:32.677Z,11.43
2019-05-07T23:08:05.681Z,10.80
2019-05-07T23:10:35.078Z,11.60
2019-05-07T23:13:04.462Z,10.73
2019-05-07T23:15:33.744Z,11.53
2019-05-07T23:18:04.484Z,10.13
2019-05-07T23:20:33.974Z,10.73
2019-05-07T23:23:04.278Z,11.13
2019-05-07T23:25:33.739Z,12.10
2019-05-07T23:28:05.526Z,9.90
2019-05-07T23:30:34.931Z,12.10
2019-05-07T23:33:04.237Z,11.10
2019-05-07T23:35:33.515Z,10.03
2019-05-07T23:38:02.822Z,11.40
2019-05-07T23:41:02.102Z,10.60
2019-05-07T23:43:31.364Z,9.73
2019-05-07T23:46:02.225Z,11.07
2019-05-07T23:48:32.232Z,8.87
2019-05-07T23:51:02.213Z,10.30
2019-05-07T23:53:31.570Z,10.20
2019-05-07T23:56:02.729Z,10.47
2019-05-07T23:58:32.659Z,9.40
